Time;durP1;ratioP1;P1;durP2;ratioP2;P2;SDS_P1;SDS_P2;PMS_P1;PMS_P2;Temp;Humidity;BMP_temperature;BMP_pressure;BME280_temperature;BME280_humidity;BME280_pressure;Samples;Min_cycle;Max_cycle;Signal;HPM_P1;HPM_P2
2023/04/07 00:02:25;;;;;;;10.90;6.33;;;;;;;;;;5000732;28;20914;-77
2023/04/07 00:04:51;;;;;;;6.83;6.13;;;;;;;;;;5018109;28;20455;-76
2023/04/07 00:07:17;;;;;;;8.87;7.10;;;;;;;;;;5012459;28;20415;-77
2023/04/07 00:09:43;;;;;;;8.03;6.70;;;;;;;;;;5012983;28;20420;-76
2023/04/07 00:12:09;;;;;;;9.20;6.77;;;;;;;;;;5013189;28;20418;-77
2023/04/07 00:14:35;;;;;;;9.90;7.03;;;;;;;;;;5013141;28;20506;-77
2023/04/07 00:17:01;;;;;;;8.00;6.90;;;;;;;;;;4995447;28;20842;-77
2023/04/07 00:19:27;;;;;;;10.77;7.10;;;;;;;;;;5012664;28;20482;-76
2023/04/07 00:21:53;;;;;;;10.20;6.50;;;;;;;;;;4995471;28;20456;-77
2023/04/07 00:24:19;;;;;;;8.63;6.70;;;;;;;;;;5013144;28;20444;-77
2023/04/07 00:26:45;;;;;;;8.93;6.53;;;;;;;;;;5012985;28;20465;-78
2023/04/07 00:29:11;;;;;;;9.90;8.13;;;;;;;;;;4995356;28;20464;-77
2023/04/07 00:31:37;;;;;;;8.60;7.80;;;;;;;;;;5024186;28;20524;-77
2023/04/07 00:34:03;;;;;;;8.40;6.40;;;;;;;;;;5032645;28;20979;-77
2023/04/07 00:36:30;;;;;;;7.47;5.90;;;;;;;;;;5032136;28;20498;-77
2023/04/07 00:38:56;;;;;;;10.07;6.60;;;;;;;;;;5032220;28;20465;-77
2023/04/07 00:41:22;;;;;;;9.83;6.77;;;;;;;;;;5014913;28;20468;-77
2023/04/07 00:43:49;;;;;;;8.70;5.77;;;;;;;;;;5032586;28;20437;-77
2023/04/07 00:46:15;;;;;;;7.67;5.93;;;;;;;;;;5014965;28;20505;-77
2023/04/07 00:48:41;;;;;;;7.77;5.63;;;;;;;;;;5032474;28;20423;-77
2023/04/07 00:51:07;;;;;;;7.73;6.20;;;;;;;;;;5032109;28;20473;-77
2023/04/07 00:53:33;;;;;;;7.47;5.23;;;;;;;;;;5014732;28;20800;-75
2023/04/07 00:55:59;;;;;;;8.93;6.37;;;;;;;;;;5032493;28;20778;-77
2023/04/07 00:58:25;;;;;;;8.50;6.17;;;;;;;;;;5032317;28;20420;-77
2023/04/07 01:00:55;;;;;;;7.30;6.60;;;;;;;;;;5014668;28;20418;-76
2023/04/07 01:03:33;;;;;;;6.70;5.00;;;;;;;;;;5014401;28;20775;-77
2023/04/07 01:06:00;;;;;;;9.03;6.70;;;;;;;;;;5032045;28;20783;-78
2023/04/07 01:08:44;;;;;;;7.03;5.73;;;;;;;;;;5032408;28;20402;-77
2023/04/07 01:11:23;;;;;;;8.20;6.33;;;;;;;;;;5032100;28;20418;-77
2023/04/07 01:13:52;;;;;;;7.80;5.90;;;;;;;;;;5014566;28;20422;-78
2023/04/07 01:16:30;;;;;;;6.63;5.60;;;;;;;;;;5032334;28;20419;-78
2023/04/07 01:19:15;;;;;;;7.87;7.00;;;;;;;;;;5015051;28;20475;-78
2023/04/07 01:21:43;;;;;;;9.33;5.70;;;;;;;;;;5035868;28;20448;-77
2023/04/07 01:24:24;;;;;;;6.30;5.70;;;;;;;;;;5035832;28;20495;-77
2023/04/07 01:26:50;;;;;;;6.27;5.03;;;;;;;;;;5035966;28;20498;-77
2023/04/07 01:29:32;;;;;;;7.93;6.07;;;;;;;;;;5017922;28;20447;-77
2023/04/07 01:31:59;;;;;;;7.47;6.27;;;;;;;;;;5018025;28;20450;-77
2023/04/07 01:34:26;;;;;;;7.90;5.23;;;;;;;;;;5016572;28;20453;-77
2023/04/07 01:36:52;;;;;;;5.90;5.30;;;;;;;;;;5017679;28;20449;-77
2023/04/07 01:39:18;;;;;;;6.90;5.47;;;;;;;;;;5035344;28;20964;-77
2023/04/07 01:41:44;;;;;;;7.30;4.93;;;;;;;;;;5035641;28;20754;-77
2023/04/07 01:44:11;;;;;;;6.20;4.97;;;;;;;;;;5035529;28;20898;-77
2023/04/07 01:46:37;;;;;;;7.40;4.40;;;;;;;;;;5017686;28;20422;-77
2023/04/07 01:49:03;;;;;;;7.97;5.50;;;;;;;;;;5035292;28;20422;-77
2023/04/07 01:51:30;;;;;;;5.70;5.10;;;;;;;;;;5035183;28;20405;-77
2023/04/07 01:53:56;;;;;;;8.43;5.43;;;;;;;;;;5017550;28;20406;-77
2023/04/07 01:56:22;;;;;;;6.63;4.70;;;;;;;;;;5035341;28;20418;-77
2023/04/07 01:58:48;;;;;;;6.07;5.40;;;;;;;;;;5035065;28;20466;-76
2023/04/07 02:01:14;;;;;;;5.60;5.07;;;;;;;;;;5035133;28;20515;-77
2023/04/07 02:03:44;;;;;;;5.17;4.50;;;;;;;;;;5035245;28;20446;-77
2023/04/07 02:06:12;;;;;;;5.33;4.17;;;;;;;;;;5034809;28;20426;-77
2023/04/07 02:08:42;;;;;;;5.73;4.70;;;;;;;;;;5035098;28;20420;-77
2023/04/07 02:11:08;;;;;;;7.53;5.63;;;;;;;;;;5034945;28;20513;-77
2023/04/07 02:13:36;;;;;;;8.10;5.80;;;;;;;;;;5034945;28;20910;-77
2023/04/07 02:16:03;;;;;;;5.33;4.83;;;;;;;;;;5034962;28;20453;-77
2023/04/07 02:18:31;;;;;;;5.83;4.47;;;;;;;;;;5034815;28;20408;-78
2023/04/07 02:20:58;;;;;;;6.20;4.73;;;;;;;;;;5048859;28;20437;-77
2023/04/07 02:23:24;;;;;;;5.37;4.80;;;;;;;;;;5054655;28;20924;-76
2023/04/07 02:25:50;;;;;;;6.50;4.63;;;;;;;;;;5054601;28;20420;-77
2023/04/07 02:28:15;;;;;;;6.73;4.53;;;;;;;;;;5036798;28;20416;-77
2023/04/07 02:30:41;;;;;;;6.70;5.30;;;;;;;;;;5053625;28;20439;-76
2023/04/07 02:33:07;;;;;;;5.10;3.53;;;;;;;;;;5036563;28;20431;-76
2023/04/07 02:35:33;;;;;;;7.47;4.60;;;;;;;;;;5036189;28;20428;-77
2023/04/07 02:37:59;;;;;;;5.97;4.87;;;;;;;;;;5054394;28;20412;-77
2023/04/07 02:40:25;;;;;;;5.00;3.93;;;;;;;;;;5041055;28;20484;-77
2023/04/07 02:42:51;;;;;;;5.50;4.23;;;;;;;;;;5033970;28;20505;-77
2023/04/07 02:45:17;;;;;;;4.73;3.60;;;;;;;;;;5034351;28;20423;-76
2023/04/07 02:47:43;;;;;;;5.87;4.97;;;;;;;;;;5034244;28;20417;-77
2023/04/07 02:50:09;;;;;;;7.30;4.83;;;;;;;;;;5033908;28;20413;-77
2023/04/07 02:52:35;;;;;;;6.83;4.73;;;;;;;;;;5034185;28;20737;-76
2023/04/07 02:55:02;;;;;;;5.97;5.13;;;;;;;;;;5034100;28;20429;-76
2023/04/07 02:57:28;;;;;;;7.33;4.50;;;;;;;;;;5034117;28;20420;-76
2023/04/07 02:59:55;;;;;;;5.10;3.87;;;;;;;;;;5033977;28;20858;-77
2023/04/07 03:02:21;;;;;;;4.77;4.00;;;;;;;;;;5034045;28;20635;-77
2023/04/07 03:04:47;;;;;;;5.50;2.60;;;;;;;;;;5032936;28;20539;-77
2023/04/07 03:07:15;;;;;;;5.77;4.00;;;;;;;;;;5033474;28;20436;-77
2023/04/07 03:09:41;;;;;;;4.93;3.87;;;;;;;;;;5033692;28;20413;-77
2023/04/07 03:12:07;;;;;;;3.50;3.10;;;;;;;;;;5033895;28;20425;-78
2023/04/07 03:14:36;;;;;;;9.83;4.47;;;;;;;;;;5033884;28;20886;-78
2023/04/07 03:17:03;;;;;;;6.23;4.03;;;;;;;;;;5033820;28;20411;-78
2023/04/07 03:19:29;;;;;;;5.73;4.40;;;;;;;;;;5033400;28;20475;-78
2023/04/07 03:21:55;;;;;;;10.90;3.50;;;;;;;;;;5033704;28;20401;-76
2023/04/07 03:24:21;;;;;;;8.50;4.30;;;;;;;;;;5033764;28;20777;-78
2023/04/07 03:26:47;;;;;;;6.00;4.00;;;;;;;;;;5033697;28;20401;-78
2023/04/07 03:29:13;;;;;;;5.43;4.30;;;;;;;;;;5015955;28;20957;-78
2023/04/07 03:31:39;;;;;;;6.53;3.47;;;;;;;;;;5033604;28;20404;-78
2023/04/07 03:34:05;;;;;;;4.90;3.80;;;;;;;;;;5033217;28;20415;-77
2023/04/07 03:36:31;;;;;;;6.60;3.90;;;;;;;;;;5033518;28;20411;-77
2023/04/07 03:38:57;;;;;;;4.30;3.60;;;;;;;;;;5033260;28;20541;-77
2023/04/07 03:41:23;;;;;;;10.33;5.10;;;;;;;;;;5015632;28;20421;-78
2023/04/07 03:43:49;;;;;;;4.90;3.60;;;;;;;;;;5033281;28;20406;-78
2023/04/07 03:46:15;;;;;;;4.90;4.43;;;;;;;;;;5033438;28;20410;-78
2023/04/07 03:48:45;;;;;;;6.87;5.33;;;;;;;;;;5033838;28;20406;-77
2023/04/07 03:51:11;;;;;;;5.90;4.50;;;;;;;;;;5052880;28;20405;-78
2023/04/07 03:53:36;;;;;;;6.83;4.50;;;;;;;;;;5053194;28;20404;-77
2023/04/07 03:56:02;;;;;;;3.40;2.80;;;;;;;;;;5035360;28;20408;-77
2023/04/07 03:58:28;;;;;;;6.63;5.03;;;;;;;;;;5053013;28;20973;-75
2023/04/07 04:00:54;;;;;;;5.23;4.20;;;;;;;;;;5035197;28;20425;-77
2023/04/07 04:03:20;;;;;;;4.50;3.80;;;;;;;;;;5053023;28;20407;-76
2023/04/07 04:05:46;;;;;;;6.17;3.83;;;;;;;;;;5052694;28;20415;-77
2023/04/07 04:08:12;;;;;;;5.20;4.70;;;;;;;;;;5053083;28;20416;-76
2023/04/07 04:10:38;;;;;;;6.67;3.73;;;;;;;;;;5052994;28;20831;-77
2023/04/07 04:13:06;;;;;;;6.93;3.80;;;;;;;;;;5035065;28;20420;-76
2023/04/07 04:15:32;;;;;;;5.20;4.07;;;;;;;;;;5052935;28;20435;-77
2023/04/07 04:17:58;;;;;;;6.73;4.17;;;;;;;;;;5052892;28;20412;-77
2023/04/07 04:20:24;;;;;;;4.80;4.27;;;;;;;;;;5052472;28;20468;-76
2023/04/07 04:22:56;;;;;;;10.53;4.33;;;;;;;;;;5034954;28;20412;-77
2023/04/07 04:25:22;;;;;;;5.33;3.80;;;;;;;;;;5052773;28;20473;-77
2023/04/07 04:27:48;;;;;;;5.63;5.03;;;;;;;;;;5034885;28;20444;-77
2023/04/07 04:30:14;;;;;;;4.90;4.10;;;;;;;;;;5034892;28;20779;-77
2023/04/07 04:32:40;;;;;;;5.47;4.23;;;;;;;;;;5052785;28;20936;-77
2023/04/07 04:35:06;;;;;;;7.17;3.70;;;;;;;;;;5034427;28;20416;-77
2023/04/07 04:37:32;;;;;;;6.70;4.20;;;;;;;;;;5052626;28;20491;-76
2023/04/07 04:39:58;;;;;;;3.53;3.23;;;;;;;;;;5034644;28;20574;-77
2023/04/07 04:42:25;;;;;;;5.03;3.30;;;;;;;;;;5034851;28;20843;-77
2023/04/07 04:44:51;;;;;;;4.97;3.57;;;;;;;;;;5052594;28;20423;-77
2023/04/07 04:47:18;;;;;;;4.40;3.57;;;;;;;;;;5052622;28;20404;-77
2023/04/07 04:49:44;;;;;;;5.50;4.00;;;;;;;;;;5052235;28;20495;-77
2023/04/07 04:52:10;;;;;;;5.47;3.50;;;;;;;;;;5052660;28;20405;-77
2023/04/07 04:54:36;;;;;;;6.17;4.10;;;;;;;;;;5036341;28;20416;-77
2023/04/07 04:57:02;;;;;;;5.83;3.83;;;;;;;;;;5056374;28;20814;-77
2023/04/07 04:59:27;;;;;;;7.43;5.07;;;;;;;;;;5056368;28;20471;-76
2023/04/07 05:01:53;;;;;;;5.37;3.03;;;;;;;;;;5056258;28;20412;-77
2023/04/07 05:04:19;;;;;;;5.40;3.57;;;;;;;;;;5055918;28;20841;-78
2023/04/07 05:06:45;;;;;;;6.38;4.57;;;;;;;;;;5055720;28;20407;-78
2023/04/07 05:09:11;;;;;;;4.20;2.70;;;;;;;;;;5056199;28;20173;-77
2023/04/07 05:11:37;;;;;;;4.73;3.57;;;;;;;;;;5056153;28;20416;-77
2023/04/07 05:14:03;;;;;;;5.70;4.37;;;;;;;;;;5056167;28;20471;-77
2023/04/07 05:16:29;;;;;;;3.53;3.20;;;;;;;;;;5056097;28;20551;-77
2023/04/07 05:18:55;;;;;;;6.50;4.33;;;;;;;;;;5037670;28;20529;-77
2023/04/07 05:21:21;;;;;;;3.93;3.53;;;;;;;;;;5055968;28;20762;-77
2023/04/07 05:23:47;;;;;;;6.37;4.17;;;;;;;;;;5038060;28;20419;-78
2023/04/07 05:26:12;;;;;;;4.20;3.03;;;;;;;;;;5055893;28;20893;-78
2023/04/07 05:28:38;;;;;;;6.57;3.40;;;;;;;;;;5044570;28;20417;-78
2023/04/07 05:31:07;;;;;;;5.20;4.17;;;;;;;;;;5024523;28;20512;-78
2023/04/07 05:33:33;;;;;;;6.47;3.53;;;;;;;;;;5002876;28;20418;-77
2023/04/07 05:35:59;;;;;;;4.73;3.57;;;;;;;;;;4998101;28;20835;-76
2023/04/07 05:38:25;;;;;;;7.10;3.83;;;;;;;;;;4997792;28;20864;-77
2023/04/07 05:40:51;;;;;;;5.70;3.90;;;;;;;;;;5015772;28;20513;-78
2023/04/07 05:43:17;;;;;;;5.07;3.27;;;;;;;;;;5015919;28;21139;-77
2023/04/07 05:45:43;;;;;;;8.70;3.57;;;;;;;;;;5015853;28;20421;-77
2023/04/07 05:48:09;;;;;;;4.77;4.00;;;;;;;;;;4998161;28;20768;-77
2023/04/07 05:50:35;;;;;;;5.00;3.77;;;;;;;;;;5015450;28;20761;-77
2023/04/07 05:53:01;;;;;;;5.70;3.70;;;;;;;;;;5015686;28;20429;-76
2023/04/07 05:55:27;;;;;;;4.50;3.50;;;;;;;;;;5015634;28;20906;-77
2023/04/07 05:57:53;;;;;;;8.07;2.63;;;;;;;;;;5015626;28;20474;-77
2023/04/07 06:00:19;;;;;;;5.30;4.10;;;;;;;;;;5015525;28;20480;-77
2023/04/07 06:02:45;;;;;;;4.20;2.40;;;;;;;;;;5015620;28;20410;-77
2023/04/07 06:05:11;;;;;;;5.50;3.73;;;;;;;;;;5015201;28;20416;-77
2023/04/07 06:07:37;;;;;;;5.83;4.40;;;;;;;;;;5015354;28;20470;-77
2023/04/07 06:10:03;;;;;;;5.83;3.77;;;;;;;;;;5015490;28;20791;-77
2023/04/07 06:12:29;;;;;;;6.50;3.30;;;;;;;;;;5015463;28;20410;-78
2023/04/07 06:14:55;;;;;;;5.47;3.10;;;;;;;;;;5015342;28;20410;-77
2023/04/07 06:17:24;;;;;;;4.60;3.47;;;;;;;;;;5015324;28;20408;-76
2023/04/07 06:19:50;;;;;;;5.60;3.03;;;;;;;;;;5014739;28;20484;-78
2023/04/07 06:22:16;;;;;;;5.77;4.00;;;;;;;;;;5015195;28;20407;-78
2023/04/07 06:24:42;;;;;;;4.90;3.07;;;;;;;;;;4997595;28;20411;-78
2023/04/07 06:27:08;;;;;;;7.20;3.67;;;;;;;;;;5015074;28;20417;-78
2023/04/07 06:29:34;;;;;;;5.57;3.10;;;;;;;;;;5015101;28;20890;-78
2023/04/07 06:32:01;;;;;;;5.53;3.27;;;;;;;;;;5015091;28;20428;-78
2023/04/07 06:34:27;;;;;;;5.33;3.20;;;;;;;;;;5014508;28;20412;-78
2023/04/07 06:36:53;;;;;;;4.80;3.03;;;;;;;;;;4997170;28;20428;-78
2023/04/07 06:39:19;;;;;;;4.87;3.83;;;;;;;;;;5014518;28;20226;-78
2023/04/07 06:41:45;;;;;;;4.60;3.60;;;;;;;;;;5014811;28;20418;-78
2023/04/07 06:44:11;;;;;;;7.20;4.73;;;;;;;;;;4997105;28;20414;-78
2023/04/07 06:46:37;;;;;;;5.63;3.00;;;;;;;;;;5014573;28;20421;-79
2023/04/07 06:49:09;;;;;;;5.63;3.13;;;;;;;;;;5014313;28;20419;-79
2023/04/07 06:51:44;;;;;;;5.77;3.20;;;;;;;;;;5014632;28;20412;-76
2023/04/07 06:54:14;;;;;;;4.47;2.73;;;;;;;;;;4997167;28;20784;-78
2023/04/07 06:56:40;;;;;;;7.53;3.13;;;;;;;;;;5014439;28;20448;-77
2023/04/07 06:59:06;;;;;;;4.07;3.67;;;;;;;;;;5014385;28;20479;-78
2023/04/07 07:01:33;;;;;;;5.73;3.60;;;;;;;;;;5014470;28;20413;-78
2023/04/07 07:04:02;;;;;;;6.07;4.20;;;;;;;;;;5014127;28;20417;-79
2023/04/07 07:06:27;;;;;;;4.97;3.70;;;;;;;;;;5014346;28;20764;-78
2023/04/07 07:08:54;;;;;;;5.03;3.73;;;;;;;;;;5014256;28;20416;-78
2023/04/07 07:11:20;;;;;;;4.27;3.20;;;;;;;;;;5014333;28;20785;-79
2023/04/07 07:13:46;;;;;;;6.77;3.87;;;;;;;;;;4996618;28;20487;-77
2023/04/07 07:16:12;;;;;;;5.33;3.47;;;;;;;;;;4996430;28;20424;-78
2023/04/07 07:18:41;;;;;;;5.70;3.40;;;;;;;;;;5013406;28;20425;-77
2023/04/07 07:21:08;;;;;;;5.13;4.10;;;;;;;;;;5014077;28;20421;-77
2023/04/07 07:23:34;;;;;;;7.90;4.50;;;;;;;;;;5013828;28;20501;-78
2023/04/07 07:26:00;;;;;;;6.40;4.67;;;;;;;;;;5013964;28;20501;-78
2023/04/07 07:28:27;;;;;;;6.23;3.70;;;;;;;;;;5013926;28;20453;-77
2023/04/07 07:31:14;;;;;;;4.63;3.70;;;;;;;;;;5013964;28;20420;-78
2023/04/07 07:33:42;;;;;;;6.47;3.70;;;;;;;;;;5013217;28;20512;-78
2023/04/07 07:36:08;;;;;;;4.73;2.73;;;;;;;;;;4996099;28;20444;-78
2023/04/07 07:38:34;;;;;;;6.20;3.93;;;;;;;;;;5013551;28;20420;-78
2023/04/07 07:41:00;;;;;;;4.80;3.87;;;;;;;;;;5013460;28;20826;-78
2023/04/07 07:43:26;;;;;;;7.50;4.87;;;;;;;;;;5013511;28;20417;-79
2023/04/07 07:45:52;;;;;;;5.37;4.20;;;;;;;;;;4995906;28;20798;-78
2023/04/07 07:48:17;;;;;;;6.50;4.00;;;;;;;;;;5013328;28;20168;-77
2023/04/07 07:50:44;;;;;;;4.87;3.37;;;;;;;;;;5013619;28;20185;-78
2023/04/07 07:53:10;;;;;;;4.67;3.10;;;;;;;;;;5013584;28;20174;-77
2023/04/07 07:55:36;;;;;;;4.53;3.57;;;;;;;;;;5013482;28;20416;-80
2023/04/07 07:58:02;;;;;;;6.87;3.43;;;;;;;;;;5016643;28;20466;-78
2023/04/07 08:00:28;;;;;;;4.70;4.10;;;;;;;;;;5010359;28;20477;-78
2023/04/07 08:02:54;;;;;;;4.20;3.10;;;;;;;;;;5019314;28;20556;-78
2023/04/07 08:05:20;;;;;;;4.80;3.87;;;;;;;;;;5018937;28;20197;-78
2023/04/07 08:07:46;;;;;;;5.63;3.57;;;;;;;;;;5019455;28;20455;-78
2023/04/07 08:10:12;;;;;;;3.20;2.83;;;;;;;;;;5019394;28;20930;-78
2023/04/07 08:12:38;;;;;;;4.10;2.83;;;;;;;;;;5019515;28;20186;-78
2023/04/07 08:15:05;;;;;;;7.83;3.70;;;;;;;;;;5009825;28;20534;-77
2023/04/07 08:17:31;;;;;;;4.27;3.17;;;;;;;;;;5019213;28;20500;-78
2023/04/07 08:19:57;;;;;;;6.07;4.03;;;;;;;;;;5001245;28;20491;-78
2023/04/07 08:22:25;;;;;;;5.00;3.67;;;;;;;;;;5009577;28;20576;-78
2023/04/07 08:24:51;;;;;;;3.43;2.70;;;;;;;;;;5019051;28;20586;-78
2023/04/07 08:27:17;;;;;;;5.90;3.53;;;;;;;;;;5010070;28;20446;-78
2023/04/07 08:29:43;;;;;;;5.97;4.10;;;;;;;;;;5021084;28;20244;-78
2023/04/07 08:32:09;;;;;;;5.50;4.00;;;;;;;;;;5022687;28;20507;-77
2023/04/07 08:34:35;;;;;;;6.53;3.47;;;;;;;;;;5025264;28;20193;-78
2023/04/07 08:37:01;;;;;;;5.30;3.17;;;;;;;;;;5015016;28;20436;-77
2023/04/07 08:39:27;;;;;;;6.30;3.67;;;;;;;;;;5022992;28;20235;-78
2023/04/07 08:41:54;;;;;;;7.27;3.80;;;;;;;;;;5023034;28;20797;-75
2023/04/07 08:44:21;;;;;;;7.73;4.30;;;;;;;;;;5012877;28;20446;-76
2023/04/07 08:46:48;;;;;;;4.60;3.60;;;;;;;;;;5022076;28;20474;-76
2023/04/07 08:49:16;;;;;;;5.70;4.57;;;;;;;;;;5012993;28;20532;-77
2023/04/07 08:51:47;;;;;;;7.33;4.80;;;;;;;;;;5012239;28;20922;-77
2023/04/07 08:54:14;;;;;;;3.70;3.30;;;;;;;;;;5022357;28;20443;-76
2023/04/07 08:56:41;;;;;;;4.53;4.10;;;;;;;;;;5022223;28;20576;-77
2023/04/07 08:59:08;;;;;;;3.70;3.40;;;;;;;;;;5022734;28;20533;-77
2023/04/07 09:01:35;;;;;;;4.67;2.93;;;;;;;;;;5022753;28;20478;-77
2023/04/07 09:04:01;;;;;;;4.73;4.00;;;;;;;;;;5012705;28;20964;-76
2023/04/07 09:06:30;;;;;;;4.30;3.47;;;;;;;;;;5013245;28;20940;-76
2023/04/07 09:08:56;;;;;;;6.97;2.97;;;;;;;;;;5023329;28;20440;-76
2023/04/07 09:11:22;;;;;;;4.30;3.60;;;;;;;;;;5022546;28;20451;-76
2023/04/07 09:13:49;;;;;;;3.77;3.37;;;;;;;;;;5022926;28;20238;-76
2023/04/07 09:16:15;;;;;;;4.20;3.30;;;;;;;;;;5022527;28;20931;-76
2023/04/07 09:18:41;;;;;;;7.83;4.20;;;;;;;;;;5021989;28;20444;-76
2023/04/07 09:21:07;;;;;;;4.93;3.40;;;;;;;;;;5022668;28;20491;-76
2023/04/07 09:23:35;;;;;;;4.63;3.83;;;;;;;;;;5012885;28;20892;-76
2023/04/07 09:26:18;;;;;;;5.47;3.67;;;;;;;;;;5021850;28;20456;-77
2023/04/07 09:28:45;;;;;;;3.97;2.97;;;;;;;;;;5021670;28;20464;-76
2023/04/07 09:31:11;;;;;;;4.50;3.67;;;;;;;;;;5021996;28;20447;-76
2023/04/07 09:33:37;;;;;;;3.97;2.70;;;;;;;;;;5022266;28;20448;-77
2023/04/07 09:36:05;;;;;;;3.80;3.20;;;;;;;;;;5021983;28;20193;-76
2023/04/07 09:38:37;;;;;;;6.23;3.53;;;;;;;;;;5021505;28;20452;-76
2023/04/07 09:41:07;;;;;;;3.83;3.27;;;;;;;;;;5020438;28;20453;-78
2023/04/07 09:43:35;;;;;;;6.90;3.97;;;;;;;;;;5012295;28;20437;-77
2023/04/07 09:46:26;;;;;;;4.80;4.20;;;;;;;;;;5021015;28;20913;-78
2023/04/07 09:49:02;;;;;;;4.40;3.90;;;;;;;;;;5008442;28;20502;-76
2023/04/07 09:51:28;;;;;;;4.87;3.90;;;;;;;;;;5012306;28;20957;-87
2023/04/07 09:53:54;;;;;;;3.87;3.03;;;;;;;;;;5008003;28;20437;-88
2023/04/07 09:56:23;;;;;;;4.40;3.47;;;;;;;;;;5021474;28;20430;-86
2023/04/07 09:58:52;;;;;;;4.70;3.30;;;;;;;;;;5020780;28;20456;-83
2023/04/07 10:01:18;;;;;;;4.43;2.83;;;;;;;;;;5002204;28;20428;-82
2023/04/07 10:03:49;;;;;;;4.93;3.20;;;;;;;;;;5010399;28;20433;-83
2023/04/07 10:06:15;;;;;;;5.20;3.70;;;;;;;;;;5003035;28;20437;-84
2023/04/07 10:08:42;;;;;;;4.77;3.90;;;;;;;;;;5011207;28;20525;-87
2023/04/07 10:11:09;;;;;;;3.90;3.23;;;;;;;;;;5020136;28;20460;-86
2023/04/07 10:13:36;;;;;;;7.10;3.90;;;;;;;;;;5021644;28;21159;-80
2023/04/07 10:16:03;;;;;;;4.50;4.03;;;;;;;;;;5010863;28;20818;-75
2023/04/07 10:18:30;;;;;;;5.10;4.13;;;;;;;;;;5021890;28;20534;-79
2023/04/07 10:20:57;;;;;;;4.73;3.00;;;;;;;;;;5020463;28;20450;-86
2023/04/07 10:23:26;;;;;;;5.10;3.73;;;;;;;;;;5019916;28;20516;-76
2023/04/07 10:25:53;;;;;;;4.83;3.47;;;;;;;;;;5020244;28;20936;-75
2023/04/07 10:28:20;;;;;;;5.00;3.83;;;;;;;;;;5020907;28;20449;-75
2023/04/07 10:30:47;;;;;;;6.27;3.87;;;;;;;;;;5019468;28;20441;-77
2023/04/07 10:33:13;;;;;;;3.30;2.70;;;;;;;;;;5019559;28;20445;-77
2023/04/07 10:36:02;;;;;;;3.47;2.77;;;;;;;;;;5021551;28;20487;-78
2023/04/07 10:38:28;;;;;;;3.67;2.80;;;;;;;;;;5019013;28;20264;-84
2023/04/07 10:40:54;;;;;;;3.77;2.87;;;;;;;;;;5007818;28;20569;-83
2023/04/07 10:43:37;;;;;;;3.97;3.67;;;;;;;;;;5002583;28;20640;-86
2023/04/07 10:46:03;;;;;;;4.33;3.40;;;;;;;;;;5021021;28;20611;-79
2023/04/07 10:48:31;;;;;;;5.27;2.40;;;;;;;;;;5020699;28;20606;-87
2023/04/07 10:51:09;;;;;;;6.17;2.83;;;;;;;;;;5021354;28;20182;-81
2023/04/07 10:53:35;;;;;;;4.50;3.10;;;;;;;;;;5025500;28;20995;-76
2023/04/07 10:56:02;;;;;;;4.57;2.87;;;;;;;;;;5023530;28;20936;-78
2023/04/07 10:58:28;;;;;;;4.83;3.23;;;;;;;;;;5002593;28;20530;-82
2023/04/07 11:00:57;;;;;;;4.00;3.60;;;;;;;;;;5020613;28;20921;-78
2023/04/07 11:03:23;;;;;;;4.20;3.10;;;;;;;;;;5017609;28;20999;-87
2023/04/07 11:05:49;;;;;;;3.83;3.27;;;;;;;;;;5020485;28;20940;-83
2023/04/07 11:08:16;;;;;;;4.37;3.40;;;;;;;;;;5020113;28;20434;-81
2023/04/07 11:10:47;;;;;;;4.93;3.00;;;;;;;;;;5019924;28;20445;-82
2023/04/07 11:13:13;;;;;;;5.50;3.43;;;;;;;;;;5000393;28;20433;-81
2023/04/07 11:15:41;;;;;;;3.23;2.63;;;;;;;;;;5019811;28;21004;-81
2023/04/07 11:18:12;;;;;;;6.73;3.97;;;;;;;;;;5018880;28;20178;-78
2023/04/07 11:20:47;;;;;;;3.30;3.00;;;;;;;;;;5020555;28;20472;-84
2023/04/07 11:23:17;;;;;;;3.13;2.83;;;;;;;;;;5018300;28;20440;-86
2023/04/07 11:25:44;;;;;;;4.47;3.17;;;;;;;;;;5019831;28;20430;-86
2023/04/07 11:28:13;;;;;;;3.40;2.80;;;;;;;;;;5020091;28;20993;-89
2023/04/07 11:30:44;;;;;;;4.03;3.30;;;;;;;;;;5020387;28;20436;-87
2023/04/07 11:33:13;;;;;;;3.63;2.73;;;;;;;;;;5019517;28;20530;-86
2023/04/07 11:35:46;;;;;;;3.27;2.70;;;;;;;;;;5010129;28;20452;-85
2023/04/07 11:38:12;;;;;;;3.47;2.80;;;;;;;;;;5019258;28;20443;-81
2023/04/07 11:40:38;;;;;;;4.20;3.60;;;;;;;;;;5019269;28;20480;-90
2023/04/07 11:43:17;;;;;;;4.30;2.83;;;;;;;;;;5020617;28;20199;-84
2023/04/07 11:45:43;;;;;;;5.53;3.60;;;;;;;;;;5019924;28;21231;-89
2023/04/07 11:48:28;;;;;;;3.80;3.07;;;;;;;;;;5020259;28;20437;-80
2023/04/07 11:50:55;;;;;;;3.47;2.70;;;;;;;;;;5003376;28;20437;-85
2023/04/07 11:53:25;;;;;;;3.67;2.90;;;;;;;;;;5008062;28;20432;-87
2023/04/07 11:55:58;;;;;;;4.67;2.60;;;;;;;;;;5009631;28;20429;-89
2023/04/07 11:58:24;;;;;;;6.50;3.00;;;;;;;;;;5022399;28;20458;-84
2023/04/07 12:00:54;;;;;;;3.43;2.20;;;;;;;;;;5008710;28;20814;-87
2023/04/07 12:03:20;;;;;;;3.40;3.00;;;;;;;;;;5019504;28;20500;-81
2023/04/07 12:05:46;;;;;;;2.90;2.20;;;;;;;;;;5008566;28;20442;-86
2023/04/07 12:08:17;;;;;;;2.53;2.33;;;;;;;;;;5017664;28;20210;-78
2023/04/07 12:10:44;;;;;;;2.97;2.10;;;;;;;;;;5018386;28;20958;-78
2023/04/07 12:13:12;;;;;;;2.60;2.00;;;;;;;;;;4999889;28;20942;-82
2023/04/07 12:15:38;;;;;;;3.67;3.33;;;;;;;;;;5018064;28;20528;-86
2023/04/07 12:18:05;;;;;;;2.40;2.20;;;;;;;;;;5008403;28;21018;-80
2023/04/07 12:20:31;;;;;;;3.33;2.70;;;;;;;;;;4999800;28;20238;-80
2023/04/07 12:22:59;;;;;;;5.70;2.43;;;;;;;;;;5009433;28;20448;-83
2023/04/07 12:25:26;;;;;;;2.53;1.73;;;;;;;;;;5009620;28;20488;-82
2023/04/07 12:27:52;;;;;;;2.47;2.27;;;;;;;;;;5019540;28;20561;-82
2023/04/07 12:30:18;;;;;;;3.57;2.47;;;;;;;;;;5001082;28;20972;-85
2023/04/07 12:32:44;;;;;;;2.80;2.50;;;;;;;;;;5009316;28;20438;-85
2023/04/07 12:35:10;;;;;;;3.03;2.73;;;;;;;;;;5018929;28;20439;-84
2023/04/07 12:37:36;;;;;;;2.30;2.10;;;;;;;;;;5019138;28;20189;-84
2023/04/07 12:40:02;;;;;;;3.53;2.00;;;;;;;;;;4999981;28;20321;-79
2023/04/07 12:42:28;;;;;;;2.87;2.10;;;;;;;;;;4999980;28;20856;-79
2023/04/07 12:44:53;;;;;;;4.40;2.50;;;;;;;;;;4999103;28;20281;-78
2023/04/07 12:47:19;;;;;;;3.43;2.30;;;;;;;;;;5000143;28;20270;-85
2023/04/07 12:49:45;;;;;;;2.50;2.07;;;;;;;;;;5009047;28;20178;-81
2023/04/07 12:52:11;;;;;;;2.97;2.50;;;;;;;;;;5019709;28;20193;-80
2023/04/07 12:54:38;;;;;;;3.13;1.80;;;;;;;;;;5009109;28;20182;-77
2023/04/07 12:57:03;;;;;;;3.13;2.10;;;;;;;;;;5018192;28;20186;-83
2023/04/07 12:59:29;;;;;;;2.57;1.97;;;;;;;;;;4998072;28;20473;-80
2023/04/07 13:01:55;;;;;;;3.00;1.70;;;;;;;;;;5019450;28;20552;-81
2023/04/07 13:04:23;;;;;;;3.77;2.53;;;;;;;;;;5017591;28;20538;-77
2023/04/07 13:06:48;;;;;;;3.73;1.60;;;;;;;;;;5000054;28;20525;-79
2023/04/07 13:09:14;;;;;;;2.00;0.93;;;;;;;;;;4999088;28;20543;-81
2023/04/07 13:11:40;;;;;;;1.60;1.37;;;;;;;;;;5009646;28;20198;-85
2023/04/07 13:14:06;;;;;;;2.47;1.23;;;;;;;;;;5001360;28;20241;-83
2023/04/07 13:16:33;;;;;;;4.40;0.97;;;;;;;;;;5002820;28;20210;-83
2023/04/07 13:18:59;;;;;;;2.80;1.30;;;;;;;;;;5021972;28;20469;-83
2023/04/07 13:21:26;;;;;;;1.30;1.00;;;;;;;;;;5022343;28;20448;-82
2023/04/07 13:23:53;;;;;;;0.80;0.43;;;;;;;;;;5022706;28;20534;-84
2023/04/07 13:26:18;;;;;;;1.27;0.70;;;;;;;;;;5022216;28;20441;-83
2023/04/07 13:28:46;;;;;;;1.63;0.80;;;;;;;;;;5012492;28;20995;-78
2023/04/07 13:31:14;;;;;;;1.53;0.50;;;;;;;;;;5003747;28;20464;-84
2023/04/07 13:33:40;;;;;;;2.63;0.87;;;;;;;;;;5022362;28;20494;-77
2023/04/07 13:36:06;;;;;;;1.67;1.00;;;;;;;;;;5012541;28;20437;-77
2023/04/07 13:38:32;;;;;;;0.83;0.33;;;;;;;;;;5003849;28;20440;-78
2023/04/07 13:40:58;;;;;;;1.00;0.50;;;;;;;;;;5021574;28;20842;-76
2023/04/07 13:43:25;;;;;;;1.40;0.50;;;;;;;;;;5012587;28;20523;-77
2023/04/07 13:45:51;;;;;;;1.60;0.80;;;;;;;;;;5002970;28;20226;-79
2023/04/07 13:48:17;;;;;;;1.70;0.80;;;;;;;;;;5021582;28;20599;-78
2023/04/07 13:50:43;;;;;;;2.10;0.60;;;;;;;;;;5022243;28;20860;-84
2023/04/07 13:53:09;;;;;;;3.17;0.60;;;;;;;;;;5021681;28;20290;-84
2023/04/07 13:55:35;;;;;;;0.83;0.57;;;;;;;;;;5001747;28;20187;-78
2023/04/07 13:58:01;;;;;;;2.03;0.67;;;;;;;;;;5021084;28;20431;-84
2023/04/07 14:00:27;;;;;;;2.23;0.70;;;;;;;;;;5003936;28;20555;-82
2023/04/07 14:02:54;;;;;;;1.07;0.40;;;;;;;;;;5003057;28;20181;-83
2023/04/07 14:05:20;;;;;;;1.50;0.70;;;;;;;;;;5002902;28;20450;-80
2023/04/07 14:07:46;;;;;;;0.83;0.57;;;;;;;;;;5011919;28;20433;-81
2023/04/07 14:10:12;;;;;;;1.77;1.23;;;;;;;;;;5002574;28;20444;-84
2023/04/07 14:12:38;;;;;;;2.20;1.27;;;;;;;;;;5012498;28;20494;-85
2023/04/07 14:15:05;;;;;;;1.07;0.63;;;;;;;;;;5003655;28;20200;-77
2023/04/07 14:17:30;;;;;;;1.27;0.63;;;;;;;;;;5002476;28;20439;-82
2023/04/07 14:19:57;;;;;;;1.10;0.70;;;;;;;;;;5021969;28;20487;-82
2023/04/07 14:22:23;;;;;;;1.00;0.50;;;;;;;;;;5004144;28;20272;-85
2023/04/07 14:24:49;;;;;;;2.00;0.90;;;;;;;;;;5003357;28;20528;-87
2023/04/07 14:27:19;;;;;;;1.77;0.73;;;;;;;;;;5020032;28;20462;-78
2023/04/07 14:29:45;;;;;;;1.53;0.60;;;;;;;;;;5021132;28;20472;-84
2023/04/07 14:32:11;;;;;;;0.93;0.57;;;;;;;;;;5020397;28;20443;-86
2023/04/07 14:34:37;;;;;;;1.67;0.30;;;;;;;;;;5003941;28;20436;-81
2023/04/07 14:37:03;;;;;;;1.30;0.60;;;;;;;;;;5023223;28;20454;-84
2023/04/07 14:39:29;;;;;;;1.80;0.50;;;;;;;;;;5022760;28;20543;-85
2023/04/07 14:41:55;;;;;;;1.07;0.70;;;;;;;;;;5019988;28;21174;-80
2023/04/07 14:44:21;;;;;;;1.07;0.50;;;;;;;;;;5021436;28;20437;-87